Weather reports worldwide

Advertisment
Gwinn, mi, United States of America (2074855): temperature & dewpoint: 10.01.2018 02:00:00 - 16.01.2018 02:00:00 (EST)Gwinn, mi, United States of America (2074855): wind speed: 10.01.2018 02:00:00 - 16.01.2018 02:00:00 (EST)Gwinn, mi, United States of America (2074855): wind direction: 10.01.2018 02:00:00 - 16.01.2018 02:00:00 (EST)Gwinn, mi, United States of America (2074855): visibility: 10.01.2018 02:00:00 - 16.01.2018 02:00:00 (EST)
Date & Time tt [°C] td [°C] ff [km/h] ff [kn] dd vv [km]
16.01.2018 02:00:00 -13,9 -15,5 8 4 NW 2,0
16.01.2018 01:00:00 -13,8 -15,4 0 0 N 16
16.01.2018 00:00:00 -11,9 -14,1 8 4 NW 16
15.01.2018 23:00:00 -10,3 -12,4 15 8 ESE 16
15.01.2018 22:00:00 -10,0 -12,0 13 7 ENE 16
15.01.2018 21:00:00 -10,0 -12,0 11 6 ENE 16
15.01.2018 20:00:00 -10,0 -12,0 5 3 NE 11
15.01.2018 19:00:00 -10,0 -12,0 8 4 ENE 16
15.01.2018 18:00:00 -10,0 -12,0 11 6 NE 16
15.01.2018 17:00:00 -9,0 -11,0 15 8 E 6
15.01.2018 16:00:00 -8,0 -11,0 11 6 ENE 2,4
15.01.2018 15:00:00 -8,0 -11,0 9 5 ENE 2,4
15.01.2018 14:00:00 -8,0 -11,0 13 7 E 3,2
15.01.2018 13:00:00 -8,0 -11,0 15 8 E 3,2
15.01.2018 12:00:00 -9,0 -11,0 13 7 E 6
15.01.2018 11:00:00 -9,0 -11,0 16 9 E 11
15.01.2018 10:00:00 -9,0 -11,0 16 9 E 11
15.01.2018 09:00:00 -9,0 -11,0 18 10 E 1,6
15.01.2018 08:00:00 -10,0 -12,0 11 6 ENE 2,4
15.01.2018 07:00:00 -11,0 -12,0 9 5 ENE 2,0
15.01.2018 06:00:00 -10,5 -12,2 11 6 E 6
15.01.2018 05:00:00 -10,7 -12,5 11 6 E 2,4
15.01.2018 04:00:00 -11,3 -13,1 8 4 ESE 6
15.01.2018 03:00:00 -11,6 -13,5 9 5 ESE 3,2
15.01.2018 02:00:00 -12,7 -14,6 9 5 SE 8
15.01.2018 01:00:00 -12,3 -14,3 11 6 SE 3,2
15.01.2018 00:00:00 -12,0 -14,1 13 7 S 8
14.01.2018 23:00:00 -12,0 -14,6 16 9 SSW 6
14.01.2018 22:00:00 -12,0 -17,0 18 10 SSW 16
14.01.2018 21:00:00 -13,0 -19,0 18 10 SSW 16
14.01.2018 20:00:00 -13,0 -19,0 24 13 S 16
14.01.2018 19:00:00 -14,0 -20,0 21 11 S 16
14.01.2018 18:00:00 -14,0 -21,0 21 11 S 16
14.01.2018 17:00:00 -14,0 -22,0 18 10 S 16
14.01.2018 16:00:00 -13,0 -22,0 24 13 S 16
14.01.2018 15:00:00 -13,0 -22,0 24 13 S 16
14.01.2018 14:00:00 -14,0 -23,0 26 14 SSW 16
14.01.2018 13:00:00 -15,0 -23,0 24 13 SSW 16
14.01.2018 12:00:00 -17,0 -22,0 22 12 SW 16
14.01.2018 11:00:00 -20,0 -23,0 16 9 SSW 16
14.01.2018 10:00:00 -24,0 -27,0 11 6 SSW 16
14.01.2018 09:00:00 -25,0 -28,0 11 6 SSW 16
14.01.2018 08:00:00 -25,0 -27,0 11 6 SW 16
14.01.2018 07:00:00 -25,0 -28,0 8 4 SSW 16
14.01.2018 06:00:00 -24,0 -26,5 0 0 N 16
14.01.2018 05:00:00 -23,4 -26,0 0 0 N 16
14.01.2018 04:00:00 -23,4 -26,0 5 3 SSW 16
14.01.2018 03:00:00 -22,4 -24,8 8 4 SW 16
14.01.2018 02:00:00 -20,8 -23,3 5 3 SSW 16
14.01.2018 01:00:00 -20,0 -22,6 9 5 WSW 16
14.01.2018 00:00:00 -19,1 -21,7 5 3 WSW 16
13.01.2018 23:00:00 -18,4 -20,8 0 0 N 16
13.01.2018 22:00:00 -18,0 -21,0 9 5 WSW 16
13.01.2018 21:00:00 -17,0 -20,0 5 3 WSW 16
13.01.2018 20:00:00 -16,0 -19,0 8 4 WSW 16
13.01.2018 19:00:00 -15,0 -19,0 9 5 W 16
13.01.2018 18:00:00 -15,0 -19,0 9 5 W 16
13.01.2018 17:00:00 -13,0 -18,0 13 7 W 16
13.01.2018 16:00:00 -13,0 -19,0 11 6 WNW 16
13.01.2018 15:00:00 -13,0 -19,0 11 6 W 16
13.01.2018 14:00:00 -14,0 -19,0 5 3 NNW 16
13.01.2018 13:00:00 -15,0 -20,0 15 8 NNW 16
13.01.2018 12:00:00 -16,0 -21,0 21 11 WNW 16
13.01.2018 11:00:00 -17,0 -21,0 16 9 WNW 16
13.01.2018 10:00:00 -20,0 -23,0 18 10 WNW 16
13.01.2018 09:00:00 -21,0 -24,0 16 9 WNW 16
13.01.2018 08:00:00 -21,0 -24,0 15 8 WNW 16
13.01.2018 07:00:00 -21,0 -24,0 15 8 WNW 16
13.01.2018 06:00:00 -21,5 -24,3 16 9 WNW 16
13.01.2018 05:00:00 -20,7 -23,3 16 9 WNW 16
13.01.2018 04:00:00 -21,6 -24,2 9 5 NW 16
13.01.2018 03:00:00 -21,3 -23,6 0 0 N 16
13.01.2018 02:00:00 -21,1 -23,5 5 3 NW 16
13.01.2018 01:00:00 -20,0 -22,5 8 4 W 16
13.01.2018 00:00:00 -19,7 -22,3 15 8 WNW 16
12.01.2018 23:00:00 -20,7 -23,1 13 7 WNW 16
12.01.2018 22:00:00 -20,0 -22,0 13 7 W 16
12.01.2018 21:00:00 -19,0 -22,0 15 8 W 16
12.01.2018 20:00:00 -19,0 -22,0 13 7 W 16
12.01.2018 19:00:00 -19,0 -22,0 5 3 WNW 16
12.01.2018 18:00:00 -17,0 -21,0 9 5 NW 16
12.01.2018 17:00:00 -15,0 -19,0 16 9 NNW 11
12.01.2018 16:00:00 -15,0 -20,0 29 16 NNW 11
12.01.2018 15:00:00 -14,0 -20,0 29 16 NNW 11
12.01.2018 14:00:00 -15,0 -19,0 24 13 NNW 11
12.01.2018 13:00:00 -14,0 -18,0 34 18 NNW 4,8
12.01.2018 12:00:00 -14,0 -18,0 31 17 NNW 2,0
12.01.2018 11:00:00 -14,0 -18,0 22 12 NNW 2,0
12.01.2018 10:00:00 -15,0 -18,0 31 17 NNW 2,0
12.01.2018 09:00:00 -15,0 -17,0 29 16 NNW 1,6
12.01.2018 08:00:00 -15,0 -18,0 35 19 NNW 4,0
12.01.2018 07:00:00 -14,0 -17,0 35 19 NNW 4,0
12.01.2018 06:00:00 -13,3 -16,2 34 18 NNW 3,2
12.01.2018 05:00:00 -12,4 -14,5 24 13 NNW 2,0
12.01.2018 04:00:00 -12,1 -14,5 28 15 N 2,0
12.01.2018 03:00:00 -11,5 -14,0 34 18 NNW 2,0
12.01.2018 02:00:00 -10,5 -13,0 31 17 NNW 3,2
12.01.2018 01:00:00 -10,7 -12,8 28 15 NNW 2,0
12.01.2018 00:00:00 -11,0 -13,5 29 16 N 3,2
11.01.2018 23:00:00 -11,5 -14,2 29 16 NNW 4,0
11.01.2018 22:00:00 -11,0 -14,0 31 17 NNW 3,2
11.01.2018 21:00:00 -10,0 -13,0 37 20 N 4,0
11.01.2018 20:00:00 -9,0 -11,0 31 17 N 1,6
11.01.2018 19:00:00 -8,0 -10,0 35 19 N 8
11.01.2018 18:00:00 -6,0 -8,0 29 16 N 1,6
11.01.2018 17:00:00 -5,0 -7,0 29 16 N 1,2
11.01.2018 16:00:00 -4,0 -5,0 35 19 N 4,0
11.01.2018 15:00:00 -2,0 -2,0 37 20 N 1,2
11.01.2018 14:00:00 1,0 0,0 5 3 WNW 4,0
11.01.2018 13:00:00 2,0 1,0 5 3 W 4,8
11.01.2018 12:00:00 2,0 1,0 0 0 N 1,6
11.01.2018 11:00:00 1,0 1,0 9 5 SSW 0,4
11.01.2018 10:00:00 1,0 1,0 9 5 S 0,4
11.01.2018 09:00:00 1,0 0,0 8 4 S 0,8
11.01.2018 08:00:00 1,0 0,0 9 5 SSW 0,8
11.01.2018 07:00:00 1,0 0,0 8 4 S 0,8
11.01.2018 06:00:00 0,7 0,1 5 3 SSW 0,8
11.01.2018 05:00:00 0,7 0,1 8 4 SSW 0,8
11.01.2018 04:00:00 0,8 0,2 13 7 SSW 1,2
11.01.2018 03:00:00 0,7 0,1 13 7 S 2,0
11.01.2018 02:00:00 0,6 0,0 11 6 SSW 1,2
11.01.2018 01:00:00 0,6 0,0 15 8 SSW 3,2
11.01.2018 00:00:00 0,5 0,0 15 8 SSW 4,8
10.01.2018 23:00:00 0,5 0,0 18 10 SSW 3,2
10.01.2018 22:00:00 0,0 0,0 16 9 S 1,2
10.01.2018 21:00:00 0,0 0,0 16 9 SSW 1,2
10.01.2018 20:00:00 0,0 0,0 13 7 S 1,2
10.01.2018 19:00:00 1,0 0,0 16 9 SSW 3,2
10.01.2018 18:00:00 1,0 0,0 21 11 SSW 6
10.01.2018 17:00:00 1,0 0,0 18 10 SSW 6
10.01.2018 16:00:00 1,0 0,0 24 13 SSW 4,8
10.01.2018 15:00:00 1,0 0,0 31 17 SSW 4,0
10.01.2018 14:00:00 1,0 0,0 31 17 SSW 4,8
10.01.2018 13:00:00 1,0 0,0 31 17 S 4,8
10.01.2018 12:00:00 1,0 0,0 35 19 SSW 4,8
10.01.2018 11:00:00 0,0 0,0 37 20 S 3,2
10.01.2018 10:00:00 0,0 0,0 41 22 S 2,0
10.01.2018 09:00:00 0,0 -1,0 35 19 S 3,2
10.01.2018 08:00:00 0,0 -1,0 31 17 S 6
10.01.2018 07:00:00 0,0 -2,0 26 14 S 8
10.01.2018 06:00:00 -0,2 -2,0 31 17 S 8
10.01.2018 05:00:00 -0,5 -2,0 29 16 S 8
10.01.2018 04:00:00 -0,9 -2,4 31 17 S 8
10.01.2018 03:00:00 -1,1 -2,5 29 16 S 8
10.01.2018 02:00:00 -1,4 -2,6 31 17 S 8

tt = temperature
td = dewpoint
ff = wind speed
dd = wind direction
vv = visibility

Next stations